Aviation Digital Data Service (ADDS)

Output produced by METARs form (2254 UTC 20 January 2019)
found at http://www.aviationweather.gov/metar/data/
 
METAR text: OPMT 202150Z 36004KT 5000 FU SCT040 OVC100 12/11 Q1014 TEMPO -RA FEW030CB
Conditions at: OPMT (MULTAN , PK) observed 2150 UTC 20 January 2019
Temperature: 12.0°C (54°F)
Dewpoint: 11.0°C (52°F) [RH = 94%]
Pressure (altimeter): 29.94 inches Hg (1014.0 mb)
Winds: from the N (360 degrees) at 5 MPH (4 knots; 2.1 m/s)
Visibility: 3 miles ( 5 km)
Ceiling: 10000 feet AGL
Clouds: scattered clouds at 4000 feet AGL
overcast cloud deck at 10000 feet AGL
Weather: FU  (smoke)

METAR text: OPMT 202050Z 00000KT 5000 FU SCT040 OVC100 12/11 Q1015 TEMPO -RA FEW030CB
Conditions at: OPMT (MULTAN , PK) observed 2050 UTC 20 January 2019
Temperature: 12.0°C (54°F)
Dewpoint: 11.0°C (52°F) [RH = 94%]
Pressure (altimeter): 29.97 inches Hg (1015.0 mb)
Winds: calm
Visibility: 3 miles ( 5 km)
Ceiling: 10000 feet AGL
Clouds: scattered clouds at 4000 feet AGL
overcast cloud deck at 10000 feet AGL
Weather: FU  (smoke)

METAR text: OPMT 201950Z 00000KT 5000 FU SCT040 OVC100 12/11 Q1015 TEMPO TSRA FEW030CB
Conditions at: OPMT (MULTAN , PK) observed 1950 UTC 20 January 2019
Temperature: 12.0°C (54°F)
Dewpoint: 11.0°C (52°F) [RH = 94%]
Pressure (altimeter): 29.97 inches Hg (1015.0 mb)
Winds: calm
Visibility: 3 miles ( 5 km)
Ceiling: 10000 feet AGL
Clouds: scattered clouds at 4000 feet AGL
overcast cloud deck at 10000 feet AGL
Weather: FU  (smoke)

METAR text: OPMT 201855Z 00000KT 5000 FU SCT040 OVC100 12/11 Q1016 TEMPO TSRA FEW030CB
Conditions at: OPMT (MULTAN , PK) observed 1855 UTC 20 January 2019
Temperature: 12.0°C (54°F)
Dewpoint: 11.0°C (52°F) [RH = 94%]
Pressure (altimeter): 30.00 inches Hg (1016.0 mb)
Winds: calm
Visibility: 3 miles ( 5 km)
Ceiling: 10000 feet AGL
Clouds: scattered clouds at 4000 feet AGL
overcast cloud deck at 10000 feet AGL
Weather: FU  (smoke)

METAR text: OPMT 201755Z 00000KT 5000 FU SCT040 OVC100 13/11 Q1017 TEMPO TSRA FEW030CB
Conditions at: OPMT (MULTAN , PK) observed 1755 UTC 20 January 2019
Temperature: 13.0°C (55°F)
Dewpoint: 11.0°C (52°F) [RH = 88%]
Pressure (altimeter): 30.03 inches Hg (1017.0 mb)
Winds: calm
Visibility: 3 miles ( 5 km)
Ceiling: 10000 feet AGL
Clouds: scattered clouds at 4000 feet AGL
overcast cloud deck at 10000 feet AGL
Weather: FU  (smoke)

METAR text: OPMT 201725Z 00000KT 5000 FU SCT040 OVC100 13/11 Q1017 TEMPO TSRA FEW030CB
Conditions at: OPMT (MULTAN , PK) observed 1725 UTC 20 January 2019
Temperature: 13.0°C (55°F)
Dewpoint: 11.0°C (52°F) [RH = 88%]
Pressure (altimeter): 30.03 inches Hg (1017.0 mb)
Winds: calm
Visibility: 3 miles ( 5 km)
Ceiling: 10000 feet AGL
Clouds: scattered clouds at 4000 feet AGL
overcast cloud deck at 10000 feet AGL
Weather: FU  (smoke)

METAR text: OPMT 201655Z 00000KT 5000 FU SCT040 OVC100 13/11 Q1017 TEMPO TSRA FEW030CB
Conditions at: OPMT (MULTAN , PK) observed 1655 UTC 20 January 2019
Temperature: 13.0°C (55°F)
Dewpoint: 11.0°C (52°F) [RH = 88%]
Pressure (altimeter): 30.03 inches Hg (1017.0 mb)
Winds: calm
Visibility: 3 miles ( 5 km)
Ceiling: 10000 feet AGL
Clouds: scattered clouds at 4000 feet AGL
overcast cloud deck at 10000 feet AGL
Weather: FU  (smoke)

METAR text: OPMT 201630Z 00000KT 5000 DZ SCT040 OVC100 13/11 Q1016 TEMPO TSRA FEW030CB
Conditions at: OPMT (MULTAN , PK) observed 1630 UTC 20 January 2019
Temperature: 13.0°C (55°F)
Dewpoint: 11.0°C (52°F) [RH = 88%]
Pressure (altimeter): 30.00 inches Hg (1016.0 mb)
Winds: calm
Visibility: 3 miles ( 5 km)
Ceiling: 10000 feet AGL
Clouds: scattered clouds at 4000 feet AGL
overcast cloud deck at 10000 feet AGL
Weather: DZ  (moderate drizzle)

METAR text: OPMT 201555Z 05006KT 5000 FU SCT040 OVC100 13/11 Q1015 TEMPO TSRA FEW030CB
Conditions at: OPMT (MULTAN , PK) observed 1555 UTC 20 January 2019
Temperature: 13.0°C (55°F)
Dewpoint: 11.0°C (52°F) [RH = 88%]
Pressure (altimeter): 29.97 inches Hg (1015.0 mb)
Winds: from the NE (50 degrees) at 7 MPH (6 knots; 3.1 m/s)
Visibility: 3 miles ( 5 km)
Ceiling: 10000 feet AGL
Clouds: scattered clouds at 4000 feet AGL
overcast cloud deck at 10000 feet AGL
Weather: FU  (smoke)

METAR text: OPMT 201530Z 00000KT 5000 FU SCT040 OVC100 13/11 Q1016 TEMPO TSRA FEW030CB
Conditions at: OPMT (MULTAN , PK) observed 1530 UTC 20 January 2019
Temperature: 13.0°C (55°F)
Dewpoint: 11.0°C (52°F) [RH = 88%]
Pressure (altimeter): 30.00 inches Hg (1016.0 mb)
Winds: calm
Visibility: 3 miles ( 5 km)
Ceiling: 10000 feet AGL
Clouds: scattered clouds at 4000 feet AGL
overcast cloud deck at 10000 feet AGL
Weather: FU  (smoke)

METAR text: OPMT 201500Z 31004KT 5000 BR SCT040 OVC100 13/11 Q1016 TEMPO TSRA FEW030CB
Conditions at: OPMT (MULTAN , PK) observed 1500 UTC 20 January 2019
Temperature: 13.0°C (55°F)
Dewpoint: 11.0°C (52°F) [RH = 88%]
Pressure (altimeter): 30.00 inches Hg (1016.0 mb)
Winds: from the NW (310 degrees) at 5 MPH (4 knots; 2.1 m/s)
Visibility: 3 miles ( 5 km)
Ceiling: 10000 feet AGL
Clouds: scattered clouds at 4000 feet AGL
overcast cloud deck at 10000 feet AGL
Weather: BR  (mist)

METAR text: OPMT 201430Z 05004KT 5000 BR SCT040 OVC100 13/11 Q1015 TEMPO TSRA FEW030CB
Conditions at: OPMT (MULTAN , PK) observed 1430 UTC 20 January 2019
Temperature: 13.0°C (55°F)
Dewpoint: 11.0°C (52°F) [RH = 88%]
Pressure (altimeter): 29.97 inches Hg (1015.0 mb)
Winds: from the NE (50 degrees) at 5 MPH (4 knots; 2.1 m/s)
Visibility: 3 miles ( 5 km)
Ceiling: 10000 feet AGL
Clouds: scattered clouds at 4000 feet AGL
overcast cloud deck at 10000 feet AGL
Weather: BR  (mist)

METAR text: OPMT 201425Z 05004KT 5000 BR SCT040 OVC100 13/11 Q1015 TEMPO TSRA FEW030CB
Conditions at: OPMT (MULTAN , PK) observed 1425 UTC 20 January 2019
Temperature: 13.0°C (55°F)
Dewpoint: 11.0°C (52°F) [RH = 88%]
Pressure (altimeter): 29.97 inches Hg (1015.0 mb)
Winds: from the NE (50 degrees) at 5 MPH (4 knots; 2.1 m/s)
Visibility: 3 miles ( 5 km)
Ceiling: 10000 feet AGL
Clouds: scattered clouds at 4000 feet AGL
overcast cloud deck at 10000 feet AGL
Weather: BR  (mist)

METAR text: OPMT 201400Z 05004KT 5000 TSDZ SCT040 OVC100 13/11 Q1015 TEMPO TSRA FEW030CB
Conditions at: OPMT (MULTAN , PK) observed 1400 UTC 20 January 2019
Temperature: 13.0°C (55°F)
Dewpoint: 11.0°C (52°F) [RH = 88%]
Pressure (altimeter): 29.97 inches Hg (1015.0 mb)
Winds: from the NE (50 degrees) at 5 MPH (4 knots; 2.1 m/s)
Visibility: 3 miles ( 5 km)
Ceiling: 10000 feet AGL
Clouds: scattered clouds at 4000 feet AGL
overcast cloud deck at 10000 feet AGL
Weather: TSDZ  (unknown weather)

METAR text: OPMT 201330Z 36004KT 4000 TSDZ SCT040 OVC100 13/10 Q1015 TEMPO TSRA FEW030CB
Conditions at: OPMT (MULTAN , PK) observed 1330 UTC 20 January 2019
Temperature: 13.0°C (55°F)
Dewpoint: 10.0°C (50°F) [RH = 82%]
Pressure (altimeter): 29.97 inches Hg (1015.0 mb)
Winds: from the N (360 degrees) at 5 MPH (4 knots; 2.1 m/s)
Visibility: 2.49 miles (4.01 km)
Ceiling: 10000 feet AGL
Clouds: scattered clouds at 4000 feet AGL
overcast cloud deck at 10000 feet AGL
Weather: TSDZ  (unknown weather)

METAR text: OPMT 201300Z 31014KT 3000 DZ SCT040 OVC100 14/10 Q1018 TEMPO TSRA FEW030CB
Conditions at: OPMT (MULTAN , PK) observed 1300 UTC 20 January 2019
Temperature: 14.0°C (57°F)
Dewpoint: 10.0°C (50°F) [RH = 77%]
Pressure (altimeter): 30.06 inches Hg (1018.0 mb)
Winds: from the NW (310 degrees) at 16 MPH (14 knots; 7.2 m/s)
Visibility: 1.86 miles (2.99 km)
Ceiling: 10000 feet AGL
Clouds: scattered clouds at 4000 feet AGL
overcast cloud deck at 10000 feet AGL
Weather: DZ  (moderate drizzle)

METAR text: OPMT 201230Z 36006KT 4000 DZ SCT040 OVC100 14/09 Q1016 TEMPO TSRA FEW030CB
Conditions at: OPMT (MULTAN , PK) observed 1230 UTC 20 January 2019
Temperature: 14.0°C (57°F)
Dewpoint: 9.0°C (48°F) [RH = 72%]
Pressure (altimeter): 30.00 inches Hg (1016.0 mb)
Winds: from the N (360 degrees) at 7 MPH (6 knots; 3.1 m/s)
Visibility: 2.49 miles (4.01 km)
Ceiling: 10000 feet AGL
Clouds: scattered clouds at 4000 feet AGL
overcast cloud deck at 10000 feet AGL
Weather: DZ  (moderate drizzle)

METAR text: OPMT 201200Z 05010KT 4000 DZ SCT040 OVC100 15/10 Q1015 TEMPO TSRA FEW030CB
Conditions at: OPMT (MULTAN , PK) observed 1200 UTC 20 January 2019
Temperature: 15.0°C (59°F)
Dewpoint: 10.0°C (50°F) [RH = 72%]
Pressure (altimeter): 29.97 inches Hg (1015.0 mb)
Winds: from the NE (50 degrees) at 12 MPH (10 knots; 5.1 m/s)
Visibility: 2.49 miles (4.01 km)
Ceiling: 10000 feet AGL
Clouds: scattered clouds at 4000 feet AGL
overcast cloud deck at 10000 feet AGL
Weather: DZ  (moderate drizzle)

METAR text: OPMT 201130Z 36006KT 4000 FU SCT040 OVC100 15/09 Q1015 TEMPO TSRA FEW030CB
Conditions at: OPMT (MULTAN , PK) observed 1130 UTC 20 January 2019
Temperature: 15.0°C (59°F)
Dewpoint: 9.0°C (48°F) [RH = 67%]
Pressure (altimeter): 29.97 inches Hg (1015.0 mb)
Winds: from the N (360 degrees) at 7 MPH (6 knots; 3.1 m/s)
Visibility: 2.49 miles (4.01 km)
Ceiling: 10000 feet AGL
Clouds: scattered clouds at 4000 feet AGL
overcast cloud deck at 10000 feet AGL
Weather: FU  (smoke)

METAR text: OPMT 201100Z 05012KT 3000 RA SCT040 OVC100 16/09 Q1015 TEMPO TS FEW030CB
Conditions at: OPMT (MULTAN , PK) observed 1100 UTC 20 January 2019
Temperature: 16.0°C (61°F)
Dewpoint: 9.0°C (48°F) [RH = 63%]
Pressure (altimeter): 29.97 inches Hg (1015.0 mb)
Winds: from the NE (50 degrees) at 14 MPH (12 knots; 6.2 m/s)
Visibility: 1.86 miles (2.99 km)
Ceiling: 10000 feet AGL
Clouds: scattered clouds at 4000 feet AGL
overcast cloud deck at 10000 feet AGL
Weather: RA  (moderate rain)

METAR text: OPMT 201030Z 36014KT 3000 DRDU FEW040 BKN100 17/08 Q1015 TEMPO TSRA FEW030CB
Conditions at: OPMT (MULTAN , PK) observed 1030 UTC 20 January 2019
Temperature: 17.0°C (63°F)
Dewpoint: 8.0°C (46°F) [RH = 55%]
Pressure (altimeter): 29.97 inches Hg (1015.0 mb)
Winds: from the N (360 degrees) at 16 MPH (14 knots; 7.2 m/s)
Visibility: 1.86 miles (2.99 km)
Ceiling: 10000 feet AGL
Clouds: few clouds at 4000 feet AGL
broken clouds at 10000 feet AGL
Weather: DRDU  (low drifting dust)

METAR text: OPMT 201000Z 36016KT 3000 DRDU FEW040 BKN100 20/06 Q1015 TEMPO TSRA FEW030CB
Conditions at: OPMT (MULTAN , PK) observed 1000 UTC 20 January 2019
Temperature: 20.0°C (68°F)
Dewpoint: 6.0°C (43°F) [RH = 40%]
Pressure (altimeter): 29.97 inches Hg (1015.0 mb)
Winds: from the N (360 degrees) at 18 MPH (16 knots; 8.2 m/s)
Visibility: 1.86 miles (2.99 km)
Ceiling: 10000 feet AGL
Clouds: few clouds at 4000 feet AGL
broken clouds at 10000 feet AGL
Weather: DRDU  (low drifting dust)

METAR text: OPMT 200930Z 05008KT 4000 HZ FEW040 BKN100 20/07 Q1015 NOSIG
Conditions at: OPMT (MULTAN , PK) observed 0930 UTC 20 January 2019
Temperature: 20.0°C (68°F)
Dewpoint: 7.0°C (45°F) [RH = 43%]
Pressure (altimeter): 29.97 inches Hg (1015.0 mb)
Winds: from the NE (50 degrees) at 9 MPH (8 knots; 4.1 m/s)
Visibility: 2.49 miles (4.01 km)
Ceiling: 10000 feet AGL
Clouds: few clouds at 4000 feet AGL
broken clouds at 10000 feet AGL
Weather: HZ  (haze)

METAR text: OPMT 200900Z 36004KT 4000 HZ FEW040 BKN100 20/07 Q1016 NOSIG
Conditions at: OPMT (MULTAN , PK) observed 0900 UTC 20 January 2019
Temperature: 20.0°C (68°F)
Dewpoint: 7.0°C (45°F) [RH = 43%]
Pressure (altimeter): 30.00 inches Hg (1016.0 mb)
Winds: from the N (360 degrees) at 5 MPH (4 knots; 2.1 m/s)
Visibility: 2.49 miles (4.01 km)
Ceiling: 10000 feet AGL
Clouds: few clouds at 4000 feet AGL
broken clouds at 10000 feet AGL
Weather: HZ  (haze)

METAR text: OPMT 200830Z 36004KT 4000 HZ FEW040 BKN100 20/07 Q1016 NOSIG
Conditions at: OPMT (MULTAN , PK) observed 0830 UTC 20 January 2019
Temperature: 20.0°C (68°F)
Dewpoint: 7.0°C (45°F) [RH = 43%]
Pressure (altimeter): 30.00 inches Hg (1016.0 mb)
Winds: from the N (360 degrees) at 5 MPH (4 knots; 2.1 m/s)
Visibility: 2.49 miles (4.01 km)
Ceiling: 10000 feet AGL
Clouds: few clouds at 4000 feet AGL
broken clouds at 10000 feet AGL
Weather: HZ  (haze)

METAR text: OPMT 200800Z 00000KT 4000 HZ FEW040 BKN100 20/07 Q1016 NOSIG
Conditions at: OPMT (MULTAN , PK) observed 0800 UTC 20 January 2019
Temperature: 20.0°C (68°F)
Dewpoint: 7.0°C (45°F) [RH = 43%]
Pressure (altimeter): 30.00 inches Hg (1016.0 mb)
Winds: calm
Visibility: 2.49 miles (4.01 km)
Ceiling: 10000 feet AGL
Clouds: few clouds at 4000 feet AGL
broken clouds at 10000 feet AGL
Weather: HZ  (haze)

METAR text: OPMT 200730Z 00000KT 4000 HZ FEW040 BKN100 19/06 Q1016 NOSIG
Conditions at: OPMT (MULTAN , PK) observed 0730 UTC 20 January 2019
Temperature: 19.0°C (66°F)
Dewpoint: 6.0°C (43°F) [RH = 43%]
Pressure (altimeter): 30.00 inches Hg (1016.0 mb)
Winds: calm
Visibility: 2.49 miles (4.01 km)
Ceiling: 10000 feet AGL
Clouds: few clouds at 4000 feet AGL
broken clouds at 10000 feet AGL
Weather: HZ  (haze)

METAR text: OPMT 200700Z 00000KT 4000 HZ FEW040 BKN100 18/07 Q1017 NOSIG
Conditions at: OPMT (MULTAN , PK) observed 0700 UTC 20 January 2019
Temperature: 18.0°C (64°F)
Dewpoint: 7.0°C (45°F) [RH = 49%]
Pressure (altimeter): 30.03 inches Hg (1017.0 mb)
Winds: calm
Visibility: 2.49 miles (4.01 km)
Ceiling: 10000 feet AGL
Clouds: few clouds at 4000 feet AGL
broken clouds at 10000 feet AGL
Weather: HZ  (haze)

METAR text: OPMT 200630Z 00000KT 4000 FU FEW040 BKN100 18/08 Q1017 NOSIG
Conditions at: OPMT (MULTAN , PK) observed 0630 UTC 20 January 2019
Temperature: 18.0°C (64°F)
Dewpoint: 8.0°C (46°F) [RH = 52%]
Pressure (altimeter): 30.03 inches Hg (1017.0 mb)
Winds: calm
Visibility: 2.49 miles (4.01 km)
Ceiling: 10000 feet AGL
Clouds: few clouds at 4000 feet AGL
broken clouds at 10000 feet AGL
Weather: FU  (smoke)

METAR text: OPMT 200600Z 00000KT 4000 FU FEW040 BKN100 17/07 Q1018 NOSIG
Conditions at: OPMT (MULTAN , PK) observed 0600 UTC 20 January 2019
Temperature: 17.0°C (63°F)
Dewpoint: 7.0°C (45°F) [RH = 52%]
Pressure (altimeter): 30.06 inches Hg (1018.0 mb)
Winds: calm
Visibility: 2.49 miles (4.01 km)
Ceiling: 10000 feet AGL
Clouds: few clouds at 4000 feet AGL
broken clouds at 10000 feet AGL
Weather: FU  (smoke)

METAR text: OPMT 200530Z 00000KT 4000 FU FEW040 BKN100 17/08 Q1018 NOSIG
Conditions at: OPMT (MULTAN , PK) observed 0530 UTC 20 January 2019
Temperature: 17.0°C (63°F)
Dewpoint: 8.0°C (46°F) [RH = 55%]
Pressure (altimeter): 30.06 inches Hg (1018.0 mb)
Winds: calm
Visibility: 2.49 miles (4.01 km)
Ceiling: 10000 feet AGL
Clouds: few clouds at 4000 feet AGL
broken clouds at 10000 feet AGL
Weather: FU  (smoke)

METAR text: OPMT 200500Z 00000KT 4000 FU FEW040 SCT100 16/08 Q1017 NOSIG
Conditions at: OPMT (MULTAN , PK) observed 0500 UTC 20 January 2019
Temperature: 16.0°C (61°F)
Dewpoint: 8.0°C (46°F) [RH = 59%]
Pressure (altimeter): 30.03 inches Hg (1017.0 mb)
Winds: calm
Visibility: 2.49 miles (4.01 km)
Ceiling: at least 12,000 feet AGL
Clouds: few clouds at 4000 feet AGL
scattered clouds at 10000 feet AGL
Weather: FU  (smoke)

METAR text: OPMT 200430Z 00000KT 3000 FU FEW040 BKN100 15/07 Q1017 TEMPO 4000
Conditions at: OPMT (MULTAN , PK) observed 0430 UTC 20 January 2019
Temperature: 15.0°C (59°F)
Dewpoint: 7.0°C (45°F) [RH = 59%]
Pressure (altimeter): 30.03 inches Hg (1017.0 mb)
Winds: calm
Visibility: 1.86 miles (2.99 km)
Ceiling: 10000 feet AGL
Clouds: few clouds at 4000 feet AGL
broken clouds at 10000 feet AGL
Weather: FU  (smoke)

METAR text: OPMT 200400Z 36004KT 2500 FU FEW040 BKN100 13/08 Q1017 NOSIG
Conditions at: OPMT (MULTAN , PK) observed 0400 UTC 20 January 2019
Temperature: 13.0°C (55°F)
Dewpoint: 8.0°C (46°F) [RH = 72%]
Pressure (altimeter): 30.03 inches Hg (1017.0 mb)
Winds: from the N (360 degrees) at 5 MPH (4 knots; 2.1 m/s)
Visibility: 1.55 miles (2.49 km)
Ceiling: 10000 feet AGL
Clouds: few clouds at 4000 feet AGL
broken clouds at 10000 feet AGL
Weather: FU  (smoke)

METAR text: OPMT 200330Z 05004KT 2500 FU FEW040 BKN100 13/07 Q1017 NOSIG
Conditions at: OPMT (MULTAN , PK) observed 0330 UTC 20 January 2019
Temperature: 13.0°C (55°F)
Dewpoint: 7.0°C (45°F) [RH = 67%]
Pressure (altimeter): 30.03 inches Hg (1017.0 mb)
Winds: from the NE (50 degrees) at 5 MPH (4 knots; 2.1 m/s)
Visibility: 1.55 miles (2.49 km)
Ceiling: 10000 feet AGL
Clouds: few clouds at 4000 feet AGL
broken clouds at 10000 feet AGL
Weather: FU  (smoke)

METAR text: OPMT 200300Z 00000KT 2500 FU FEW040 BKN100 13/07 Q1016 NOSIG
Conditions at: OPMT (MULTAN , PK) observed 0300 UTC 20 January 2019
Temperature: 13.0°C (55°F)
Dewpoint: 7.0°C (45°F) [RH = 67%]
Pressure (altimeter): 30.00 inches Hg (1016.0 mb)
Winds: calm
Visibility: 1.55 miles (2.49 km)
Ceiling: 10000 feet AGL
Clouds: few clouds at 4000 feet AGL
broken clouds at 10000 feet AGL
Weather: FU  (smoke)

METAR text: OPMT 200230Z 00000KT 2500 FU FEW040 BKN100 12/08 Q1016 NOSIG
Conditions at: OPMT (MULTAN , PK) observed 0230 UTC 20 January 2019
Temperature: 12.0°C (54°F)
Dewpoint: 8.0°C (46°F) [RH = 76%]
Pressure (altimeter): 30.00 inches Hg (1016.0 mb)
Winds: calm
Visibility: 1.55 miles (2.49 km)
Ceiling: 10000 feet AGL
Clouds: few clouds at 4000 feet AGL
broken clouds at 10000 feet AGL
Weather: FU  (smoke)

METAR text: OPMT 200200Z 00000KT 3000 FU FEW040 BKN100 12/08 Q1015 NOSIG
Conditions at: OPMT (MULTAN , PK) observed 0200 UTC 20 January 2019
Temperature: 12.0°C (54°F)
Dewpoint: 8.0°C (46°F) [RH = 76%]
Pressure (altimeter): 29.97 inches Hg (1015.0 mb)
Winds: calm
Visibility: 1.86 miles (2.99 km)
Ceiling: 10000 feet AGL
Clouds: few clouds at 4000 feet AGL
broken clouds at 10000 feet AGL
Weather: FU  (smoke)

METAR text: OPMT 200100Z 00000KT 3500 FU FEW040 BKN100 12/08 Q1015 NOSIG
Conditions at: OPMT (MULTAN , PK) observed 0100 UTC 20 January 2019
Temperature: 12.0°C (54°F)
Dewpoint: 8.0°C (46°F) [RH = 76%]
Pressure (altimeter): 29.97 inches Hg (1015.0 mb)
Winds: calm
Visibility: 2.17 miles (3.49 km)
Ceiling: 10000 feet AGL
Clouds: few clouds at 4000 feet AGL
broken clouds at 10000 feet AGL
Weather: FU  (smoke)

METAR text: OPMT 200000Z 00000KT 3500 FU FEW040 BKN100 112/08 Q1015 NOSIG
Conditions at: OPMT (MULTAN , PK) observed 0000 UTC 20 January 2019
Temperature: 12.0°C (54°F)
Dewpoint: 8.0°C (46°F) [RH = 76%]
Pressure (altimeter): 29.97 inches Hg (1015.0 mb)
Winds: calm
Visibility: 2.17 miles (3.49 km)
Ceiling: 10000 feet AGL
Clouds: few clouds at 4000 feet AGL
broken clouds at 10000 feet AGL
Weather: FU  (smoke)

METAR text: OPMT 192355Z 00000KT 3500 FU FEW040 BKN100 112/08 Q1015 NOSIG
Conditions at: OPMT (MULTAN , PK) observed 2355 UTC 19 January 2019
Temperature: 12.0°C (54°F)
Dewpoint: 8.0°C (46°F) [RH = 76%]
Pressure (altimeter): 29.97 inches Hg (1015.0 mb)
Winds: calm
Visibility: 2.17 miles (3.49 km)
Ceiling: 10000 feet AGL
Clouds: few clouds at 4000 feet AGL
broken clouds at 10000 feet AGL
Weather: FU  (smoke)

METAR text: OPMT 192300Z 00000KT 4000 FU FEW040 BKN100 13/09 Q1015 NOSIG
Conditions at: OPMT (MULTAN , PK) observed 2300 UTC 19 January 2019
Temperature: 13.0°C (55°F)
Dewpoint: 9.0°C (48°F) [RH = 77%]
Pressure (altimeter): 29.97 inches Hg (1015.0 mb)
Winds: calm
Visibility: 2.49 miles (4.01 km)
Ceiling: 10000 feet AGL
Clouds: few clouds at 4000 feet AGL
broken clouds at 10000 feet AGL
Weather: FU  (smoke)

METAR text: OPMT 192230Z 00000KT 4000 FU FEW040 BKN100 13/09 Q1016 NOSIG
Conditions at: OPMT (MULTAN , PK) observed 2230 UTC 19 January 2019
Temperature: 13.0°C (55°F)
Dewpoint: 9.0°C (48°F) [RH = 77%]
Pressure (altimeter): 30.00 inches Hg (1016.0 mb)
Winds: calm
Visibility: 2.49 miles (4.01 km)
Ceiling: 10000 feet AGL
Clouds: few clouds at 4000 feet AGL
broken clouds at 10000 feet AGL
Weather: FU  (smoke)

METAR text: OPMT 192200Z 00000KT 4000 FU FEW040 SCT100 13/09 Q1016 NOSIG
Conditions at: OPMT (MULTAN , PK) observed 2200 UTC 19 January 2019
Temperature: 13.0°C (55°F)
Dewpoint: 9.0°C (48°F) [RH = 77%]
Pressure (altimeter): 30.00 inches Hg (1016.0 mb)
Winds: calm
Visibility: 2.49 miles (4.01 km)
Ceiling: at least 12,000 feet AGL
Clouds: few clouds at 4000 feet AGL
scattered clouds at 10000 feet AGL
Weather: FU  (smoke)

METAR text: OPMT 192130Z 00000KT 4000 FU SCT120 13/09 Q1016 NOSIG
Conditions at: OPMT (MULTAN , PK) observed 2130 UTC 19 January 2019
Temperature: 13.0°C (55°F)
Dewpoint: 9.0°C (48°F) [RH = 77%]
Pressure (altimeter): 30.00 inches Hg (1016.0 mb)
Winds: calm
Visibility: 2.49 miles (4.01 km)
Ceiling: at least 12,000 feet AGL
Clouds: scattered clouds at 12000 feet AGL
Weather: FU  (smoke)

METAR text: OPMT 192100Z 00000KT 4000 FU SCT120 13/09 Q1016 NOSIG
Conditions at: OPMT (MULTAN , PK) observed 2100 UTC 19 January 2019
Temperature: 13.0°C (55°F)
Dewpoint: 9.0°C (48°F) [RH = 77%]
Pressure (altimeter): 30.00 inches Hg (1016.0 mb)
Winds: calm
Visibility: 2.49 miles (4.01 km)
Ceiling: at least 12,000 feet AGL
Clouds: scattered clouds at 12000 feet AGL
Weather: FU  (smoke)

METAR text: OPMT 192030Z 00000KT 4000 FU FEW040 SCT100 14/09 Q1016 NOSIG
Conditions at: OPMT (MULTAN , PK) observed 2030 UTC 19 January 2019
Temperature: 14.0°C (57°F)
Dewpoint: 9.0°C (48°F) [RH = 72%]
Pressure (altimeter): 30.00 inches Hg (1016.0 mb)
Winds: calm
Visibility: 2.49 miles (4.01 km)
Ceiling: at least 12,000 feet AGL
Clouds: few clouds at 4000 feet AGL
scattered clouds at 10000 feet AGL
Weather: FU  (smoke)

METAR text: OPMT 192000Z 00000KT 4000 FU FEW040 SCT100 14/09 Q1016 NOSIG
Conditions at: OPMT (MULTAN , PK) observed 2000 UTC 19 January 2019
Temperature: 14.0°C (57°F)
Dewpoint: 9.0°C (48°F) [RH = 72%]
Pressure (altimeter): 30.00 inches Hg (1016.0 mb)
Winds: calm
Visibility: 2.49 miles (4.01 km)
Ceiling: at least 12,000 feet AGL
Clouds: few clouds at 4000 feet AGL
scattered clouds at 10000 feet AGL
Weather: FU  (smoke)

METAR text: OPMT 191930Z 00000KT 4000 FU FEW040 SCT100 14/09 Q1017 NOSIG
Conditions at: OPMT (MULTAN , PK) observed 1930 UTC 19 January 2019
Temperature: 14.0°C (57°F)
Dewpoint: 9.0°C (48°F) [RH = 72%]
Pressure (altimeter): 30.03 inches Hg (1017.0 mb)
Winds: calm
Visibility: 2.49 miles (4.01 km)
Ceiling: at least 12,000 feet AGL
Clouds: few clouds at 4000 feet AGL
scattered clouds at 10000 feet AGL
Weather: FU  (smoke)

METAR text: OPMT 191900Z 00000KT 4000 FU FEW040 SCT100 14/09 Q1017 NOSIG
Conditions at: OPMT (MULTAN , PK) observed 1900 UTC 19 January 2019
Temperature: 14.0°C (57°F)
Dewpoint: 9.0°C (48°F) [RH = 72%]
Pressure (altimeter): 30.03 inches Hg (1017.0 mb)
Winds: calm
Visibility: 2.49 miles (4.01 km)
Ceiling: at least 12,000 feet AGL
Clouds: few clouds at 4000 feet AGL
scattered clouds at 10000 feet AGL
Weather: FU  (smoke)

METAR text: OPMT 191800Z 00000KT 4000 FU FEW040 SCT100 14/09 Q1017 NOSIG
Conditions at: OPMT (MULTAN , PK) observed 1800 UTC 19 January 2019
Temperature: 14.0°C (57°F)
Dewpoint: 9.0°C (48°F) [RH = 72%]
Pressure (altimeter): 30.03 inches Hg (1017.0 mb)
Winds: calm
Visibility: 2.49 miles (4.01 km)
Ceiling: at least 12,000 feet AGL
Clouds: few clouds at 4000 feet AGL
scattered clouds at 10000 feet AGL
Weather: FU  (smoke)

METAR text: OPMT 191740Z 00000KT 4000 FU FEW040 SCT100 14/09 Q1017 NOSIG
Conditions at: OPMT (MULTAN , PK) observed 1740 UTC 19 January 2019
Temperature: 14.0°C (57°F)
Dewpoint: 9.0°C (48°F) [RH = 72%]
Pressure (altimeter): 30.03 inches Hg (1017.0 mb)
Winds: calm
Visibility: 2.49 miles (4.01 km)
Ceiling: at least 12,000 feet AGL
Clouds: few clouds at 4000 feet AGL
scattered clouds at 10000 feet AGL
Weather: FU  (smoke)

METAR text: OPMT 191700Z 00000KT 4000 FU FEW040 SCT100 15/09 Q1017 NOSIG
Conditions at: OPMT (MULTAN , PK) observed 1700 UTC 19 January 2019
Temperature: 15.0°C (59°F)
Dewpoint: 9.0°C (48°F) [RH = 67%]
Pressure (altimeter): 30.03 inches Hg (1017.0 mb)
Winds: calm
Visibility: 2.49 miles (4.01 km)
Ceiling: at least 12,000 feet AGL
Clouds: few clouds at 4000 feet AGL
scattered clouds at 10000 feet AGL
Weather: FU  (smoke)

METAR text: OPMT 191630Z 00000KT 4000 FU SCT120 15/09 Q1017 NOSIG
Conditions at: OPMT (MULTAN , PK) observed 1630 UTC 19 January 2019
Temperature: 15.0°C (59°F)
Dewpoint: 9.0°C (48°F) [RH = 67%]
Pressure (altimeter): 30.03 inches Hg (1017.0 mb)
Winds: calm
Visibility: 2.49 miles (4.01 km)
Ceiling: at least 12,000 feet AGL
Clouds: scattered clouds at 12000 feet AGL
Weather: FU  (smoke)

METAR text: OPMT 191600Z 00000KT 4000 FU SCT120 15/09 Q1017 NOSIG
Conditions at: OPMT (MULTAN , PK) observed 1600 UTC 19 January 2019
Temperature: 15.0°C (59°F)
Dewpoint: 9.0°C (48°F) [RH = 67%]
Pressure (altimeter): 30.03 inches Hg (1017.0 mb)
Winds: calm
Visibility: 2.49 miles (4.01 km)
Ceiling: at least 12,000 feet AGL
Clouds: scattered clouds at 12000 feet AGL
Weather: FU  (smoke)

METAR text: OPMT 191530Z 00000KT 4000 FU SCT120 16/09 Q1017 NOSIG
Conditions at: OPMT (MULTAN , PK) observed 1530 UTC 19 January 2019
Temperature: 16.0°C (61°F)
Dewpoint: 9.0°C (48°F) [RH = 63%]
Pressure (altimeter): 30.03 inches Hg (1017.0 mb)
Winds: calm
Visibility: 2.49 miles (4.01 km)
Ceiling: at least 12,000 feet AGL
Clouds: scattered clouds at 12000 feet AGL
Weather: FU  (smoke)

METAR text: OPMT 191500Z 00000KT 4000 FU SCT120 16/08 Q1017 NOSIG
Conditions at: OPMT (MULTAN , PK) observed 1500 UTC 19 January 2019
Temperature: 16.0°C (61°F)
Dewpoint: 8.0°C (46°F) [RH = 59%]
Pressure (altimeter): 30.03 inches Hg (1017.0 mb)
Winds: calm
Visibility: 2.49 miles (4.01 km)
Ceiling: at least 12,000 feet AGL
Clouds: scattered clouds at 12000 feet AGL
Weather: FU  (smoke)

METAR text: OPMT 191430Z 00000KT 4000 HZ SCT120 17/07 Q1016 NOSIG
Conditions at: OPMT (MULTAN , PK) observed 1430 UTC 19 January 2019
Temperature: 17.0°C (63°F)
Dewpoint: 7.0°C (45°F) [RH = 52%]
Pressure (altimeter): 30.00 inches Hg (1016.0 mb)
Winds: calm
Visibility: 2.49 miles (4.01 km)
Ceiling: at least 12,000 feet AGL
Clouds: scattered clouds at 12000 feet AGL
Weather: HZ  (haze)

METAR text: OPMT 191400Z 00000KT 4000 HZ FEW040 SCT100 17/07 Q1016 NOSIG
Conditions at: OPMT (MULTAN , PK) observed 1400 UTC 19 January 2019
Temperature: 17.0°C (63°F)
Dewpoint: 7.0°C (45°F) [RH = 52%]
Pressure (altimeter): 30.00 inches Hg (1016.0 mb)
Winds: calm
Visibility: 2.49 miles (4.01 km)
Ceiling: at least 12,000 feet AGL
Clouds: few clouds at 4000 feet AGL
scattered clouds at 10000 feet AGL
Weather: HZ  (haze)

METAR text: OPMT 191330Z 00000KT 4000 HZ FEW040 SCT100 17/07 Q1016 NOSIG
Conditions at: OPMT (MULTAN , PK) observed 1330 UTC 19 January 2019
Temperature: 17.0°C (63°F)
Dewpoint: 7.0°C (45°F) [RH = 52%]
Pressure (altimeter): 30.00 inches Hg (1016.0 mb)
Winds: calm
Visibility: 2.49 miles (4.01 km)
Ceiling: at least 12,000 feet AGL
Clouds: few clouds at 4000 feet AGL
scattered clouds at 10000 feet AGL
Weather: HZ  (haze)

METAR text: OPMT 191300Z 00000KT 4000 HZ FEW040 SCT100 18/07 Q1015 NOSIG
Conditions at: OPMT (MULTAN , PK) observed 1300 UTC 19 January 2019
Temperature: 18.0°C (64°F)
Dewpoint: 7.0°C (45°F) [RH = 49%]
Pressure (altimeter): 29.97 inches Hg (1015.0 mb)
Winds: calm
Visibility: 2.49 miles (4.01 km)
Ceiling: at least 12,000 feet AGL
Clouds: few clouds at 4000 feet AGL
scattered clouds at 10000 feet AGL
Weather: HZ  (haze)

METAR text: OPMT 191230Z 00000KT 4000 HZ SCT100 19/05 Q1015 NOSIG
Conditions at: OPMT (MULTAN , PK) observed 1230 UTC 19 January 2019
Temperature: 19.0°C (66°F)
Dewpoint: 5.0°C (41°F) [RH = 40%]
Pressure (altimeter): 29.97 inches Hg (1015.0 mb)
Winds: calm
Visibility: 2.49 miles (4.01 km)
Ceiling: at least 12,000 feet AGL
Clouds: scattered clouds at 10000 feet AGL
Weather: HZ  (haze)

METAR text: OPMT 191200Z 00000KT 5000 HZ SCT100 20/04 Q1016 NOSIG
Conditions at: OPMT (MULTAN , PK) observed 1200 UTC 19 January 2019
Temperature: 20.0°C (68°F)
Dewpoint: 4.0°C (39°F) [RH = 35%]
Pressure (altimeter): 30.00 inches Hg (1016.0 mb)
Winds: calm
Visibility: 3 miles ( 5 km)
Ceiling: at least 12,000 feet AGL
Clouds: scattered clouds at 10000 feet AGL
Weather: HZ  (haze)

METAR text: OPMT 191130Z 00000KT 5000 HZ SCT100 20/05 Q1016 NOSIG
Conditions at: OPMT (MULTAN , PK) observed 1130 UTC 19 January 2019
Temperature: 20.0°C (68°F)
Dewpoint: 5.0°C (41°F) [RH = 37%]
Pressure (altimeter): 30.00 inches Hg (1016.0 mb)
Winds: calm
Visibility: 3 miles ( 5 km)
Ceiling: at least 12,000 feet AGL
Clouds: scattered clouds at 10000 feet AGL
Weather: HZ  (haze)

METAR text: OPMT 191100Z 05004KT 5000 HZ SCT100 20/05 Q1016 NOSIG
Conditions at: OPMT (MULTAN , PK) observed 1100 UTC 19 January 2019
Temperature: 20.0°C (68°F)
Dewpoint: 5.0°C (41°F) [RH = 37%]
Pressure (altimeter): 30.00 inches Hg (1016.0 mb)
Winds: from the NE (50 degrees) at 5 MPH (4 knots; 2.1 m/s)
Visibility: 3 miles ( 5 km)
Ceiling: at least 12,000 feet AGL
Clouds: scattered clouds at 10000 feet AGL
Weather: HZ  (haze)

Forecast for: OPMT (MULTAN , PK)
Text: TAF OPMT 202100Z 2100/2118 05010KT 4000 FU SCT040 SCT120 TN07/2101Z TX16/2110Z
Forecast period: 0000 to 1800 UTC 21 January 2019
Forecast type: FROM: standard forecast or significant change
Winds: from the NE (50 degrees) at 12 MPH (10 knots; 5.1 m/s)
Visibility: 2.49 miles (4.01 km)
Ceiling: at least 12,000 feet AGL
Clouds: scattered clouds at 4000 feet AGL
scattered clouds at 12000 feet AGL
Weather: FU  (smoke)
Text: PROB30
Forecast period: 0400 to 0800 UTC 21 January 2019
Forecast type: TEMPORARY: The following changes expected for less than half the time period
Winds: from the NE (50 degrees) at 23 MPH (20 knots; 10.3 m/s)
Visibility: 1.24 miles (2.00 km)
Ceiling: 10000 feet AGL
Clouds: few clouds at 3000 feet AGL
scattered clouds at 4000 feet AGL
broken clouds at 10000 feet AGL
Weather: TSRA  (rain associated with thunderstorm(s))